createdAt,value
2022-10-17T00:00:11.052Z,101630.98
2022-10-17T00:02:44.438Z,101627.84
2022-10-17T00:05:17.781Z,101629.14
2022-10-17T00:07:50.947Z,101635.92
2022-10-17T00:10:24.855Z,101635.87
2022-10-17T00:12:57.696Z,101636.38
2022-10-17T00:15:31.412Z,101627.70
2022-10-17T00:18:05.709Z,101628.59
2022-10-17T00:20:40.356Z,101639.36
2022-10-17T00:23:14.217Z,101636.08
2022-10-17T00:25:49.062Z,101641.66
2022-10-17T00:28:21.910Z,101639.36
2022-10-17T00:31:03.290Z,101633.43
2022-10-17T00:33:37.290Z,101638.07
2022-10-17T00:36:15.220Z,101641.80
2022-10-17T00:38:51.484Z,101638.67
2022-10-17T00:41:29.085Z,101644.48
2022-10-17T00:44:28.796Z,101649.67
2022-10-17T00:47:07.464Z,101646.30
2022-10-17T00:49:41.398Z,101648.68
2022-10-17T00:52:21.553Z,101646.99
2022-10-17T00:55:02.036Z,101648.83
2022-10-17T00:57:35.260Z,101643.25
2022-10-17T01:00:11.524Z,101640.91
2022-10-17T01:02:45.765Z,101651.78
2022-10-17T01:05:19.267Z,101642.20
2022-10-17T01:07:53.611Z,101643.10
2022-10-17T01:10:32.709Z,101647.89
2022-10-17T01:13:18.849Z,101646.09
2022-10-17T01:16:09.789Z,101646.53
2022-10-17T01:18:57.149Z,101644.84
2022-10-17T01:21:52.900Z,101650.03
2022-10-17T01:25:01.731Z,101647.08
2022-10-17T01:27:40.373Z,101654.31
2022-10-17T01:31:04.602Z,101653.02
2022-10-17T01:34:12.964Z,101657.50
2022-10-17T01:37:09.131Z,101665.52
2022-10-17T01:39:52.472Z,101658.73
2022-10-17T01:42:30.732Z,101670.25
2022-10-17T01:45:19.748Z,101670.25
2022-10-17T01:47:54.864Z,101678.77
2022-10-17T01:50:39.514Z,101681.09
2022-10-17T01:53:23.760Z,101680.23
2022-10-17T01:55:58.813Z,101686.56
2022-10-17T01:58:48.372Z,101688.61
2022-10-17T02:01:23.595Z,101691.59
2022-10-17T02:03:59.208Z,101691.05
2022-10-17T02:06:38.459Z,101694.58
2022-10-17T02:09:28.561Z,101700.51
2022-10-17T02:12:25.277Z,101704.63
2022-10-17T02:15:37.895Z,101713.39
2022-10-17T02:18:35.376Z,101712.30
2022-10-17T02:21:40.912Z,101709.50
2022-10-17T02:24:38.062Z,101704.52
2022-10-17T02:27:52.041Z,101706.21
2022-10-17T02:30:56.739Z,101709.19
2022-10-17T02:33:34.872Z,101709.27
2022-10-17T02:36:12.822Z,101714.30
2022-10-17T02:38:47.741Z,101716.34
2022-10-17T02:41:21.747Z,101718.03
2022-10-17T02:43:58.784Z,101720.63
2022-10-17T02:46:31.359Z,101724.71
2022-10-17T02:49:20.678Z,101728.98
2022-10-17T02:52:07.055Z,101729.73
2022-10-17T02:55:02.212Z,101723.49
2022-10-17T02:57:45.642Z,101721.49
2022-10-17T03:00:19.755Z,101715.80
2022-10-17T03:02:52.918Z,101713.20
2022-10-17T03:05:30.867Z,101712.66
2022-10-17T03:08:04.457Z,101713.80
2022-10-17T03:10:37.946Z,101710.15
2022-10-17T03:13:11.563Z,101711.64
2022-10-17T03:15:45.969Z,101714.47
2022-10-17T03:18:19.577Z,101710.27
2022-10-17T03:20:53.477Z,101708.66
2022-10-17T03:23:26.664Z,101711.64
2022-10-17T03:26:02.312Z,101710.94
2022-10-17T03:28:36.003Z,101711.40
2022-10-17T03:31:11.322Z,101707.40
2022-10-17T03:33:44.577Z,101711.00
2022-10-17T03:36:19.906Z,101706.25
2022-10-17T03:38:55.675Z,101707.55
2022-10-17T03:41:28.903Z,101711.82
2022-10-17T03:44:01.888Z,101708.13
2022-10-17T03:46:34.961Z,101722.99
2022-10-17T03:49:10.965Z,101727.63
2022-10-17T03:51:45.590Z,101724.87
2022-10-17T03:54:20.073Z,101724.33
2022-10-17T03:56:53.656Z,101728.59
2022-10-17T03:59:27.489Z,101733.78
2022-10-17T04:02:02.007Z,101738.24
2022-10-17T04:04:35.669Z,101741.97
2022-10-17T04:07:08.811Z,101741.84
2022-10-17T04:09:44.241Z,101743.13
2022-10-17T04:12:19.338Z,101740.67
2022-10-17T04:14:52.377Z,101741.77
2022-10-17T04:17:25.798Z,101742.29
2022-10-17T04:19:59.900Z,101738.56
2022-10-17T04:22:32.385Z,101741.16
2022-10-17T04:25:06.941Z,101748.17
2022-10-17T04:27:41.421Z,101745.97
2022-10-17T04:30:16.360Z,101752.45
2022-10-17T04:32:49.667Z,101752.22
2022-10-17T04:35:25.430Z,101752.53
2022-10-17T04:38:00.218Z,101760.62
2022-10-17T04:40:33.389Z,101752.11
2022-10-17T04:43:06.354Z,101755.77
2022-10-17T04:45:40.933Z,101751.80
2022-10-17T04:48:13.955Z,101753.66
2022-10-17T04:51:11.323Z,101759.15
2022-10-17T04:53:46.681Z,101757.39
2022-10-17T04:56:23.418Z,101755.44
2022-10-17T04:58:57.805Z,101772.91
2022-10-17T05:01:30.938Z,101770.79
2022-10-17T05:04:04.355Z,101762.74
2022-10-17T05:06:39.949Z,101771.50
2022-10-17T05:09:24.514Z,101774.72
2022-10-17T05:11:57.758Z,101775.66
2022-10-17T05:14:31.254Z,101774.24
2022-10-17T05:17:05.360Z,101773.17
2022-10-17T05:19:38.184Z,101776.08
2022-10-17T05:22:13.235Z,101777.06
2022-10-17T05:24:47.383Z,101781.41
2022-10-17T05:27:20.609Z,101781.12
2022-10-17T05:29:54.540Z,101779.91
2022-10-17T05:32:29.401Z,101780.77
2022-10-17T05:35:05.031Z,101783.97
2022-10-17T05:37:38.616Z,101781.05
2022-10-17T05:40:12.895Z,101784.85
2022-10-17T05:42:49.918Z,101785.95
2022-10-17T05:45:23.876Z,101784.02
2022-10-17T05:47:56.973Z,101784.87
2022-10-17T05:50:31.075Z,101784.78
2022-10-17T05:53:05.589Z,101795.46
2022-10-17T05:55:40.454Z,101799.42
2022-10-17T05:58:21.969Z,101795.83
2022-10-17T06:00:51.291Z,101799.82
2022-10-17T06:03:24.055Z,101805.98
2022-10-17T06:05:56.946Z,101804.69
2022-10-17T06:08:29.810Z,101810.84
2022-10-17T06:11:06.137Z,101811.08
2022-10-17T06:13:40.050Z,101809.45
2022-10-17T06:16:14.629Z,101815.42
2022-10-17T06:21:27.990Z,101818.97
2022-10-17T06:24:11.573Z,101816.72
2022-10-17T06:26:48.008Z,101816.86
2022-10-17T06:29:22.842Z,101811.61
2022-10-17T06:31:58.988Z,101810.28
2022-10-17T06:34:32.629Z,101809.72
2022-10-17T06:37:05.887Z,101810.05
2022-10-17T06:39:40.683Z,101809.63
2022-10-17T06:42:16.441Z,101812.44
2022-10-17T06:44:54.424Z,101801.75
2022-10-17T06:47:45.334Z,101806.03
2022-10-17T06:50:38.891Z,101806.37
2022-10-17T06:53:25.564Z,101802.16
2022-10-17T06:56:19.656Z,101807.05
2022-10-17T06:58:53.247Z,101805.16
2022-10-17T07:01:28.981Z,101806.50
2022-10-17T07:04:04.320Z,101805.35
2022-10-17T07:06:39.966Z,101810.99
2022-10-17T07:09:17.435Z,101805.31
2022-10-17T07:11:50.443Z,101800.56
2022-10-17T07:14:23.781Z,101803.73
2022-10-17T07:16:58.907Z,101797.09
2022-10-17T07:19:34.498Z,101798.58
2022-10-17T07:22:07.890Z,101795.34
2022-10-17T07:24:42.503Z,101796.95
2022-10-17T07:27:19.763Z,101791.34
2022-10-17T07:29:52.957Z,101789.53
2022-10-17T07:32:40.292Z,101793.97
2022-10-17T07:35:15.219Z,101790.86
2022-10-17T07:37:48.391Z,101786.56
2022-10-17T07:40:22.998Z,101789.81
2022-10-17T07:42:58.351Z,101785.51
2022-10-17T07:45:33.123Z,101791.77
2022-10-17T07:48:06.997Z,101793.31
2022-10-17T07:50:41.016Z,101790.94
2022-10-17T07:53:14.099Z,101789.09
2022-10-17T07:55:48.421Z,101778.61
2022-10-17T07:58:21.818Z,101786.43
2022-10-17T08:00:54.876Z,101778.81
2022-10-17T08:03:27.654Z,101787.56
2022-10-17T08:06:02.271Z,101787.78
2022-10-17T08:10:11.530Z,101775.67
2022-10-17T08:12:44.515Z,101778.26
2022-10-17T08:15:17.684Z,101777.69
2022-10-17T08:17:50.592Z,101774.01
2022-10-17T08:20:23.948Z,101778.95
2022-10-17T08:22:57.777Z,101780.45
2022-10-17T08:25:30.467Z,101780.41
2022-10-17T08:28:04.149Z,101784.94
2022-10-17T08:30:37.036Z,101778.47
2022-10-17T08:33:10.473Z,101784.59
2022-10-17T08:35:43.525Z,101788.35
2022-10-17T08:38:20.077Z,101790.02
2022-10-17T08:40:52.228Z,101783.72
2022-10-17T08:43:45.125Z,101793.64
2022-10-17T08:46:18.586Z,101783.73
2022-10-17T08:48:52.765Z,101793.11
2022-10-17T08:51:27.989Z,101788.23
2022-10-17T08:54:16.460Z,101780.61
2022-10-17T08:56:52.569Z,101783.43
2022-10-17T08:59:31.263Z,101782.47
2022-10-17T09:02:33.595Z,101785.06
2022-10-17T09:05:26.809Z,101783.93
2022-10-17T09:08:26.989Z,101778.45
2022-10-17T09:11:07.261Z,101769.52
2022-10-17T09:14:09.586Z,101774.73
2022-10-17T09:16:58.748Z,101766.50
2022-10-17T09:19:44.196Z,101768.56
2022-10-17T09:22:21.646Z,101761.72
2022-10-17T09:25:04.029Z,101765.77
2022-10-17T09:27:48.117Z,101771.88
2022-10-17T09:30:45.177Z,101770.60
2022-10-17T09:33:53.230Z,101769.45
2022-10-17T09:36:09.496Z,101762.33
2022-10-17T09:38:46.399Z,101752.33
2022-10-17T09:44:05.328Z,101750.12
2022-10-17T09:46:41.844Z,101755.02
2022-10-17T09:49:25.358Z,101749.42
2022-10-17T09:51:58.089Z,101741.48
2022-10-17T09:54:43.498Z,101751.66
2022-10-17T09:57:18.618Z,101748.84
2022-10-17T10:00:05.033Z,101746.17
2022-10-17T10:02:41.090Z,101744.15
2022-10-17T10:05:21.984Z,101743.36
2022-10-17T10:08:14.003Z,101734.91
2022-10-17T10:10:47.689Z,101733.89
2022-10-17T10:13:21.387Z,101727.97
2022-10-17T10:15:54.887Z,101715.17
2022-10-17T10:18:35.119Z,101712.87
2022-10-17T10:21:22.850Z,101707.52
2022-10-17T10:24:09.073Z,101709.16
2022-10-17T10:26:51.205Z,101706.74
2022-10-17T10:29:30.545Z,101704.64
2022-10-17T10:32:36.242Z,101706.38
2022-10-17T10:35:27.968Z,101703.95
2022-10-17T10:38:05.390Z,101704.16
2022-10-17T10:40:50.061Z,101703.13
2022-10-17T10:43:39.060Z,101699.82
2022-10-17T10:46:27.519Z,101697.92
2022-10-17T10:49:03.606Z,101699.61
2022-10-17T10:51:45.576Z,101696.09
2022-10-17T10:54:31.225Z,101691.84
2022-10-17T10:57:07.552Z,101690.53
2022-10-17T10:59:58.631Z,101687.11
2022-10-17T11:02:44.918Z,101694.19
2022-10-17T11:05:57.676Z,101692.67
2022-10-17T11:08:41.812Z,101691.67
2022-10-17T11:11:34.057Z,101695.92
2022-10-17T11:14:32.330Z,101690.87
2022-10-17T11:17:29.724Z,101684.52
2022-10-17T11:20:34.966Z,101678.43
2022-10-17T11:23:21.892Z,101677.84
2022-10-17T11:25:58.553Z,101682.77
2022-10-17T11:28:32.395Z,101680.35
2022-10-17T11:31:12.905Z,101671.27
2022-10-17T11:33:53.555Z,101672.58
2022-10-17T11:36:39.085Z,101681.77
2022-10-17T11:39:39.304Z,101674.88
2022-10-17T11:42:17.066Z,101673.19
2022-10-17T11:44:52.165Z,101671.88
2022-10-17T11:47:45.273Z,101677.52
2022-10-17T11:53:22.823Z,101684.59
2022-10-17T11:55:56.670Z,101693.80
2022-10-17T11:58:52.378Z,101682.91
2022-10-17T12:01:42.128Z,101680.00
2022-10-17T12:04:51.667Z,101689.47
2022-10-17T12:07:53.481Z,101692.38
2022-10-17T12:10:40.202Z,101691.86
2022-10-17T12:13:32.787Z,101688.65
2022-10-17T12:16:28.483Z,101685.02
2022-10-17T12:19:10.137Z,101684.92
2022-10-17T12:22:06.155Z,101691.69
2022-10-17T12:24:44.715Z,101687.23
2022-10-17T12:27:47.660Z,101684.91
2022-10-17T12:30:26.704Z,101696.22
2022-10-17T12:33:35.535Z,101689.96
2022-10-17T12:36:33.000Z,101685.81
2022-10-17T12:39:12.180Z,101691.77
2022-10-17T12:41:51.607Z,101693.49
2022-10-17T12:44:31.008Z,101690.07
2022-10-17T12:47:29.960Z,101688.55
2022-10-17T12:50:03.813Z,101681.98
2022-10-17T12:52:41.750Z,101684.50
2022-10-17T12:55:21.290Z,101681.67
2022-10-17T12:58:10.418Z,101675.31
2022-10-17T13:01:22.711Z,101674.18
2022-10-17T13:03:34.294Z,101673.98
2022-10-17T13:06:08.941Z,101684.27
2022-10-17T13:08:53.542Z,101678.75
2022-10-17T13:11:30.641Z,101680.75
2022-10-17T13:14:08.004Z,101684.69
2022-10-17T13:16:44.758Z,101685.48
2022-10-17T13:19:23.013Z,101690.94
2022-10-17T13:22:07.189Z,101684.86
2022-10-17T13:24:42.277Z,101696.30
2022-10-17T13:27:32.527Z,101694.66
2022-10-17T13:30:22.925Z,101688.38
2022-10-17T13:32:58.121Z,101689.10
2022-10-17T13:35:59.440Z,101690.69
2022-10-17T13:38:16.091Z,101686.64
2022-10-17T13:40:50.887Z,101683.53
2022-10-17T13:43:25.514Z,101674.63
2022-10-17T13:46:19.101Z,101675.34
2022-10-17T13:48:40.450Z,101674.23
2022-10-17T13:51:14.903Z,101678.64
2022-10-17T13:53:47.818Z,101672.56
2022-10-17T13:56:29.639Z,101680.63
2022-10-17T13:59:06.753Z,101685.07
2022-10-17T14:01:40.759Z,101685.76
2022-10-17T14:04:19.795Z,101690.16
2022-10-17T14:06:52.279Z,101691.97
2022-10-17T14:09:28.582Z,101691.13
2022-10-17T14:12:05.786Z,101694.14
2022-10-17T14:15:05.086Z,101695.39
2022-10-17T14:17:18.913Z,101697.58
2022-10-17T14:22:40.695Z,101686.69
2022-10-17T14:25:35.960Z,101683.52
2022-10-17T14:28:18.775Z,101685.09
2022-10-17T14:30:57.564Z,101690.87
2022-10-17T14:33:34.623Z,101695.43
2022-10-17T14:36:09.206Z,101692.66
2022-10-17T14:38:48.517Z,101693.40
2022-10-17T14:41:42.427Z,101691.52
2022-10-17T14:44:07.165Z,101693.45
2022-10-17T14:46:46.253Z,101696.72
2022-10-17T14:49:25.171Z,101700.73
2022-10-17T14:52:19.035Z,101698.73
2022-10-17T14:54:52.961Z,101690.99
2022-10-17T14:57:45.099Z,101684.53
2022-10-17T15:00:20.496Z,101682.14
2022-10-17T15:02:55.180Z,101684.05
2022-10-17T15:05:28.336Z,101689.09
2022-10-17T15:08:01.902Z,101692.91
2022-10-17T15:10:39.781Z,101687.45
2022-10-17T15:13:27.598Z,101694.03
2022-10-17T15:15:50.755Z,101688.73
2022-10-17T15:18:23.682Z,101689.79
2022-10-17T15:21:04.985Z,101696.98
2022-10-17T15:23:31.780Z,101696.61
2022-10-17T15:26:05.129Z,101702.41
2022-10-17T15:28:38.312Z,101703.23
2022-10-17T15:31:17.645Z,101703.76
2022-10-17T15:33:51.920Z,101711.64
2022-10-17T15:36:30.833Z,101706.45
2022-10-17T15:39:04.592Z,101712.20
2022-10-17T15:41:38.557Z,101715.09
2022-10-17T15:44:12.805Z,101717.98
2022-10-17T15:46:46.806Z,101721.65
2022-10-17T15:49:21.773Z,101725.85
2022-10-17T15:51:55.582Z,101727.55
2022-10-17T15:54:29.660Z,101731.13
2022-10-17T15:57:03.031Z,101731.13
2022-10-17T15:59:37.084Z,101733.22
2022-10-17T16:02:21.006Z,101737.16
2022-10-17T16:04:54.950Z,101745.52
2022-10-17T16:07:28.716Z,101750.48
2022-10-17T16:10:03.214Z,101757.96
2022-10-17T16:12:38.374Z,101763.70
2022-10-17T16:15:18.820Z,101755.20
2022-10-17T16:17:53.878Z,101757.58
2022-10-17T16:20:28.144Z,101762.91
2022-10-17T16:23:03.593Z,101761.48
2022-10-17T16:25:41.165Z,101770.11
2022-10-17T16:28:14.222Z,101768.81
2022-10-17T16:30:49.593Z,101783.44
2022-10-17T16:33:24.290Z,101787.34
2022-10-17T16:35:57.619Z,101784.98
2022-10-17T16:38:31.397Z,101783.55
2022-10-17T16:41:06.616Z,101777.42
2022-10-17T16:43:41.054Z,101776.76
2022-10-17T16:46:14.749Z,101766.46
2022-10-17T16:48:48.692Z,101769.08
2022-10-17T16:51:22.809Z,101759.69
2022-10-17T16:53:57.595Z,101759.83
2022-10-17T16:56:34.381Z,101756.55
2022-10-17T16:59:09.174Z,101752.11
2022-10-17T17:01:43.666Z,101753.81
2022-10-17T17:04:19.451Z,101745.87
2022-10-17T17:06:56.472Z,101741.70
2022-10-17T17:09:35.681Z,101753.13
2022-10-17T17:12:09.593Z,101759.08
2022-10-17T17:14:45.948Z,101758.05
2022-10-17T17:17:37.208Z,101753.23
2022-10-17T17:19:56.572Z,101756.61
2022-10-17T17:22:32.018Z,101750.77
2022-10-17T17:25:05.664Z,101744.75
2022-10-17T17:27:39.149Z,101752.43
2022-10-17T17:30:13.143Z,101750.32
2022-10-17T17:32:47.609Z,101746.95
2022-10-17T17:35:21.436Z,101750.31
2022-10-17T17:37:54.562Z,101747.04
2022-10-17T17:40:29.287Z,101733.20
2022-10-17T17:43:02.909Z,101733.20
2022-10-17T17:45:37.198Z,101740.52
2022-10-17T17:48:10.544Z,101738.95
2022-10-17T17:50:44.551Z,101738.81
2022-10-17T17:53:20.854Z,101748.33
2022-10-17T17:56:15.876Z,101744.28
2022-10-17T17:58:55.438Z,101750.00
2022-10-17T18:01:36.081Z,101753.14
2022-10-17T18:04:10.653Z,101752.73
2022-10-17T18:06:43.806Z,101749.77
2022-10-17T18:09:16.792Z,101747.39
2022-10-17T18:11:50.420Z,101748.42
2022-10-17T18:14:24.216Z,101745.95
2022-10-17T18:16:57.188Z,101754.52
2022-10-17T18:19:33.190Z,101759.23
2022-10-17T18:22:06.889Z,101757.11
2022-10-17T18:24:40.131Z,101744.08
2022-10-17T18:27:14.627Z,101746.81
2022-10-17T18:29:47.846Z,101745.37
2022-10-17T18:32:21.273Z,101749.23
2022-10-17T18:34:54.216Z,101745.31
2022-10-17T18:37:26.929Z,101746.46
2022-10-17T18:39:59.928Z,101743.84
2022-10-17T18:42:33.333Z,101751.23
2022-10-17T18:45:08.906Z,101757.46
2022-10-17T18:47:47.623Z,101757.41
2022-10-17T18:50:22.359Z,101753.88
2022-10-17T18:52:56.116Z,101761.27
2022-10-17T18:55:29.131Z,101769.05
2022-10-17T18:58:03.063Z,101773.42
2022-10-17T19:00:35.948Z,101775.61
2022-10-17T19:03:08.986Z,101780.64
2022-10-17T19:05:44.457Z,101788.77
2022-10-17T19:08:17.850Z,101793.04
2022-10-17T19:10:50.711Z,101792.06
2022-10-17T19:13:23.802Z,101793.08
2022-10-17T19:15:57.290Z,101785.94
2022-10-17T19:18:30.278Z,101785.64
2022-10-17T19:21:09.611Z,101774.41
2022-10-17T19:23:42.343Z,101775.42
2022-10-17T19:26:15.721Z,101777.23
2022-10-17T19:28:51.573Z,101783.30
2022-10-17T19:31:27.437Z,101775.06
2022-10-17T19:34:00.769Z,101779.43
2022-10-17T19:36:36.106Z,101782.13
2022-10-17T19:39:13.200Z,101782.75
2022-10-17T19:41:48.962Z,101779.49
2022-10-17T19:44:22.228Z,101780.50
2022-10-17T19:46:55.214Z,101785.91
2022-10-17T19:49:28.101Z,101782.66
2022-10-17T19:52:01.384Z,101780.13
2022-10-17T19:54:34.554Z,101781.53
2022-10-17T19:57:10.453Z,101784.73
2022-10-17T19:59:43.113Z,101777.73
2022-10-17T20:02:15.894Z,101776.75
2022-10-17T20:04:54.730Z,101779.05
2022-10-17T20:07:23.741Z,101778.55
2022-10-17T20:09:56.625Z,101782.66
2022-10-17T20:12:29.694Z,101773.81
2022-10-17T20:15:02.766Z,101770.31
2022-10-17T20:17:36.282Z,101771.61
2022-10-17T20:20:10.847Z,101774.42
2022-10-17T20:22:44.208Z,101775.42
2022-10-17T20:25:17.544Z,101775.31
2022-10-17T20:27:51.662Z,101769.82
2022-10-17T20:30:24.573Z,101773.78
2022-10-17T20:32:58.090Z,101772.33
2022-10-17T20:35:31.265Z,101766.63
2022-10-17T20:38:03.953Z,101767.23
2022-10-17T20:40:36.871Z,101766.91
2022-10-17T20:43:12.227Z,101764.16
2022-10-17T20:45:51.387Z,101769.05
2022-10-17T20:48:20.813Z,101768.91
2022-10-17T20:50:54.083Z,101767.21
2022-10-17T20:53:42.039Z,101762.81
2022-10-17T20:56:15.080Z,101767.31
2022-10-17T20:58:51.166Z,101771.98
2022-10-17T21:01:24.629Z,101774.28
2022-10-17T21:04:06.179Z,101778.39
2022-10-17T21:06:32.915Z,101771.14
2022-10-17T21:09:07.596Z,101774.34
2022-10-17T21:11:40.756Z,101772.29
2022-10-17T21:14:16.272Z,101772.74
2022-10-17T21:16:49.801Z,101759.56
2022-10-17T21:19:24.139Z,101763.06
2022-10-17T21:21:57.416Z,101770.79
2022-10-17T21:24:30.480Z,101776.47
2022-10-17T21:27:03.367Z,101779.36
2022-10-17T21:29:36.403Z,101780.02
2022-10-17T21:32:19.472Z,101779.97
2022-10-17T21:34:44.785Z,101776.77
2022-10-17T21:37:18.289Z,101776.31
2022-10-17T21:39:51.638Z,101775.02
2022-10-17T21:42:24.349Z,101770.97
2022-10-17T21:44:57.223Z,101768.61
2022-10-17T21:47:30.108Z,101770.75
2022-10-17T21:50:02.791Z,101766.80
2022-10-17T21:52:35.659Z,101765.95
2022-10-17T21:55:09.481Z,101761.98
2022-10-17T21:57:42.397Z,101767.27
2022-10-17T22:00:16.731Z,101768.61
2022-10-17T22:02:49.467Z,101769.09
2022-10-17T22:05:22.527Z,101773.18
2022-10-17T22:07:56.232Z,101765.25
2022-10-17T22:10:29.032Z,101764.73
2022-10-17T22:13:02.778Z,101769.92
2022-10-17T22:15:36.518Z,101772.13
2022-10-17T22:18:10.744Z,101760.15
2022-10-17T22:20:43.589Z,101758.70
2022-10-17T22:23:16.788Z,101759.84
2022-10-17T22:25:57.326Z,101754.34
2022-10-17T22:28:30.908Z,101756.27
2022-10-17T22:31:04.488Z,101748.23
2022-10-17T22:33:40.090Z,101749.61
2022-10-17T22:36:13.903Z,101752.80
2022-10-17T22:38:47.338Z,101762.50
2022-10-17T22:41:20.075Z,101755.12
2022-10-17T22:43:53.229Z,101757.31
2022-10-17T22:46:26.293Z,101764.94
2022-10-17T22:48:59.263Z,101762.58
2022-10-17T22:51:32.124Z,101763.17
2022-10-17T22:54:05.000Z,101762.11
2022-10-17T22:56:39.019Z,101759.52
2022-10-17T22:59:11.971Z,101753.70
2022-10-17T23:01:45.633Z,101766.52
2022-10-17T23:04:18.375Z,101764.39
2022-10-17T23:06:51.151Z,101761.48
2022-10-17T23:09:24.137Z,101762.63
2022-10-17T23:11:58.480Z,101761.53
2022-10-17T23:14:32.185Z,101756.58
2022-10-17T23:17:06.571Z,101759.80
2022-10-17T23:19:40.985Z,101756.66
2022-10-17T23:22:13.761Z,101756.27
2022-10-17T23:24:47.456Z,101759.64
2022-10-17T23:27:20.177Z,101755.64
2022-10-17T23:29:53.358Z,101759.84
2022-10-17T23:32:26.192Z,101758.66
2022-10-17T23:34:58.998Z,101762.62
2022-10-17T23:37:31.899Z,101765.44
2022-10-17T23:40:06.880Z,101766.19
2022-10-17T23:42:39.715Z,101762.30
2022-10-17T23:45:13.098Z,101754.53
2022-10-17T23:47:46.481Z,101755.67
2022-10-17T23:50:19.551Z,101753.34
2022-10-17T23:52:52.901Z,101748.95
2022-10-17T23:55:25.617Z,101740.08
2022-10-17T23:57:58.884Z,101737.33
